sensor_id;sensor_type;location;lat;lon;timestamp;P1;durP1;ratioP1;P2;durP2;ratioP2
19032;SDS011;9649;51.042;13.804;2022-11-30T00:00:25;40.10;;;19.73;;
19032;SDS011;9649;51.042;13.804;2022-11-30T00:05:29;35.80;;;18.90;;
19032;SDS011;9649;51.042;13.804;2022-11-30T00:10:34;39.67;;;19.40;;
19032;SDS011;9649;51.042;13.804;2022-11-30T00:15:39;36.93;;;19.80;;
19032;SDS011;9649;51.042;13.804;2022-11-30T00:20:43;38.10;;;19.13;;
19032;SDS011;9649;51.042;13.804;2022-11-30T00:25:46;34.53;;;18.40;;
19032;SDS011;9649;51.042;13.804;2022-11-30T00:30:55;34.33;;;18.37;;
19032;SDS011;9649;51.042;13.804;2022-11-30T00:36:02;35.43;;;18.60;;
19032;SDS011;9649;51.042;13.804;2022-11-30T00:41:06;34.23;;;17.30;;
19032;SDS011;9649;51.042;13.804;2022-11-30T00:46:09;33.40;;;17.97;;
19032;SDS011;9649;51.042;13.804;2022-11-30T00:51:14;33.63;;;17.40;;
19032;SDS011;9649;51.042;13.804;2022-11-30T00:56:17;33.03;;;17.83;;
19032;SDS011;9649;51.042;13.804;2022-11-30T01:01:19;35.03;;;18.30;;
19032;SDS011;9649;51.042;13.804;2022-11-30T01:06:25;33.27;;;17.60;;
19032;SDS011;9649;51.042;13.804;2022-11-30T01:11:28;34.67;;;17.93;;
19032;SDS011;9649;51.042;13.804;2022-11-30T01:16:32;34.90;;;19.00;;
19032;SDS011;9649;51.042;13.804;2022-11-30T01:21:37;34.40;;;17.63;;
19032;SDS011;9649;51.042;13.804;2022-11-30T01:26:39;33.33;;;17.90;;
19032;SDS011;9649;51.042;13.804;2022-11-30T01:31:42;33.73;;;17.70;;
19032;SDS011;9649;51.042;13.804;2022-11-30T01:36:46;34.43;;;17.37;;
19032;SDS011;9649;51.042;13.804;2022-11-30T01:41:49;30.10;;;17.23;;
19032;SDS011;9649;51.042;13.804;2022-11-30T01:46:53;32.93;;;16.73;;
19032;SDS011;9649;51.042;13.804;2022-11-30T01:52:01;33.33;;;17.20;;
19032;SDS011;9649;51.042;13.804;2022-11-30T01:57:08;31.33;;;16.60;;
19032;SDS011;9649;51.042;13.804;2022-11-30T02:02:14;34.57;;;17.40;;
19032;SDS011;9649;51.042;13.804;2022-11-30T02:07:19;36.20;;;17.73;;
19032;SDS011;9649;51.042;13.804;2022-11-30T02:12:24;33.30;;;17.17;;
19032;SDS011;9649;51.042;13.804;2022-11-30T02:17:40;37.57;;;18.73;;
19032;SDS011;9649;51.042;13.804;2022-11-30T02:22:56;36.77;;;18.47;;
19032;SDS011;9649;51.042;13.804;2022-11-30T02:28:15;33.47;;;17.57;;
19032;SDS011;9649;51.042;13.804;2022-11-30T02:33:30;35.00;;;18.30;;
19032;SDS011;9649;51.042;13.804;2022-11-30T02:38:35;36.00;;;17.33;;
19032;SDS011;9649;51.042;13.804;2022-11-30T02:43:57;31.07;;;17.43;;
19032;SDS011;9649;51.042;13.804;2022-11-30T02:50:05;37.23;;;18.73;;
19032;SDS011;9649;51.042;13.804;2022-11-30T02:55:50;33.80;;;17.43;;
19032;SDS011;9649;51.042;13.804;2022-11-30T03:02:00;31.77;;;17.00;;
19032;SDS011;9649;51.042;13.804;2022-11-30T03:14:30;33.87;;;17.17;;
19032;SDS011;9649;51.042;13.804;2022-11-30T03:21:08;34.07;;;16.90;;
19032;SDS011;9649;51.042;13.804;2022-11-30T03:26:02;32.53;;;17.10;;
19032;SDS011;9649;51.042;13.804;2022-11-30T03:31:25;32.80;;;16.83;;
19032;SDS011;9649;51.042;13.804;2022-11-30T03:39:49;38.80;;;18.63;;
19032;SDS011;9649;51.042;13.804;2022-11-30T03:49:52;32.67;;;17.37;;
19032;SDS011;9649;51.042;13.804;2022-11-30T04:01:03;39.33;;;19.53;;
19032;SDS011;9649;51.042;13.804;2022-11-30T04:07:19;39.47;;;19.53;;
19032;SDS011;9649;51.042;13.804;2022-11-30T04:12:44;38.40;;;19.47;;
19032;SDS011;9649;51.042;13.804;2022-11-30T04:18:45;35.00;;;18.47;;
19032;SDS011;9649;51.042;13.804;2022-11-30T04:31:09;44.17;;;21.60;;
19032;SDS011;9649;51.042;13.804;2022-11-30T04:36:49;41.00;;;20.27;;
19032;SDS011;9649;51.042;13.804;2022-11-30T04:42:31;45.33;;;20.40;;
19032;SDS011;9649;51.042;13.804;2022-11-30T04:48:30;40.20;;;20.13;;
19032;SDS011;9649;51.042;13.804;2022-11-30T04:54:19;39.03;;;19.77;;
19032;SDS011;9649;51.042;13.804;2022-11-30T04:59:57;42.20;;;20.43;;
19032;SDS011;9649;51.042;13.804;2022-11-30T05:11:36;43.07;;;20.80;;
19032;SDS011;9649;51.042;13.804;2022-11-30T05:17:05;40.27;;;18.80;;
19032;SDS011;9649;51.042;13.804;2022-11-30T05:22:44;39.10;;;19.60;;
19032;SDS011;9649;51.042;13.804;2022-11-30T05:28:40;33.77;;;17.57;;
19032;SDS011;9649;51.042;13.804;2022-11-30T05:47:37;35.20;;;17.30;;
19032;SDS011;9649;51.042;13.804;2022-11-30T05:53:57;36.83;;;16.87;;
19032;SDS011;9649;51.042;13.804;2022-11-30T06:10:27;32.53;;;15.73;;
19032;SDS011;9649;51.042;13.804;2022-11-30T06:16:05;33.13;;;15.53;;
19032;SDS011;9649;51.042;13.804;2022-11-30T06:26:47;33.57;;;16.30;;
19032;SDS011;9649;51.042;13.804;2022-11-30T06:38:00;32.83;;;16.67;;
19032;SDS011;9649;51.042;13.804;2022-11-30T06:49:49;32.17;;;16.40;;
19032;SDS011;9649;51.042;13.804;2022-11-30T06:56:06;35.77;;;16.40;;
19032;SDS011;9649;51.042;13.804;2022-11-30T07:27:44;30.17;;;14.60;;
19032;SDS011;9649;51.042;13.804;2022-11-30T07:34:06;30.30;;;14.90;;
19032;SDS011;9649;51.042;13.804;2022-11-30T07:40:23;26.93;;;13.57;;
19032;SDS011;9649;51.042;13.804;2022-11-30T08:28:20;23.40;;;12.80;;
19032;SDS011;9649;51.042;13.804;2022-11-30T08:33:24;25.27;;;13.07;;
19032;SDS011;9649;51.042;13.804;2022-11-30T08:38:31;24.43;;;13.33;;
19032;SDS011;9649;51.042;13.804;2022-11-30T08:43:33;25.47;;;14.07;;
19032;SDS011;9649;51.042;13.804;2022-11-30T08:48:38;28.70;;;14.70;;
19032;SDS011;9649;51.042;13.804;2022-11-30T08:53:41;25.63;;;14.10;;
19032;SDS011;9649;51.042;13.804;2022-11-30T08:58:44;25.87;;;14.10;;
19032;SDS011;9649;51.042;13.804;2022-11-30T09:03:50;23.13;;;13.10;;
19032;SDS011;9649;51.042;13.804;2022-11-30T09:08:56;27.33;;;14.97;;
19032;SDS011;9649;51.042;13.804;2022-11-30T09:14:00;25.63;;;14.90;;
19032;SDS011;9649;51.042;13.804;2022-11-30T09:19:06;24.83;;;14.10;;
19032;SDS011;9649;51.042;13.804;2022-11-30T09:24:10;26.93;;;15.10;;
19032;SDS011;9649;51.042;13.804;2022-11-30T09:29:13;24.05;;;14.30;;
19032;SDS011;9649;51.042;13.804;2022-11-30T09:34:17;24.25;;;14.25;;
19032;SDS011;9649;51.042;13.804;2022-11-30T09:39:20;24.85;;;14.93;;
19032;SDS011;9649;51.042;13.804;2022-11-30T09:44:24;23.65;;;14.27;;
19032;SDS011;9649;51.042;13.804;2022-11-30T09:49:38;22.83;;;14.48;;
19032;SDS011;9649;51.042;13.804;2022-11-30T09:54:44;26.83;;;15.18;;
19032;SDS011;9649;51.042;13.804;2022-11-30T09:59:50;24.23;;;14.55;;
19032;SDS011;9649;51.042;13.804;2022-11-30T10:04:57;23.60;;;13.90;;
19032;SDS011;9649;51.042;13.804;2022-11-30T10:10:02;23.92;;;14.60;;
19032;SDS011;9649;51.042;13.804;2022-11-30T10:15:34;22.85;;;14.65;;
19032;SDS011;9649;51.042;13.804;2022-11-30T10:20:53;24.00;;;13.50;;
19032;SDS011;9649;51.042;13.804;2022-11-30T10:26:05;23.27;;;14.45;;
19032;SDS011;9649;51.042;13.804;2022-11-30T10:31:13;26.52;;;15.50;;
19032;SDS011;9649;51.042;13.804;2022-11-30T10:36:22;25.52;;;14.32;;
19032;SDS011;9649;51.042;13.804;2022-11-30T10:41:30;22.00;;;13.87;;
19032;SDS011;9649;51.042;13.804;2022-11-30T10:46:47;23.63;;;14.07;;
19032;SDS011;9649;51.042;13.804;2022-11-30T10:51:56;25.43;;;14.30;;
19032;SDS011;9649;51.042;13.804;2022-11-30T10:57:03;23.35;;;14.15;;
19032;SDS011;9649;51.042;13.804;2022-11-30T11:07:44;20.88;;;12.95;;
19032;SDS011;9649;51.042;13.804;2022-11-30T11:12:55;19.67;;;12.38;;
19032;SDS011;9649;51.042;13.804;2022-11-30T11:23:27;22.80;;;13.43;;
19032;SDS011;9649;51.042;13.804;2022-11-30T11:28:33;23.13;;;13.60;;
19032;SDS011;9649;51.042;13.804;2022-11-30T11:33:39;22.15;;;13.52;;
19032;SDS011;9649;51.042;13.804;2022-11-30T11:38:53;19.40;;;12.82;;
19032;SDS011;9649;51.042;13.804;2022-11-30T11:43:57;20.13;;;13.13;;
19032;SDS011;9649;51.042;13.804;2022-11-30T11:49:04;22.70;;;13.38;;
19032;SDS011;9649;51.042;13.804;2022-11-30T11:54:13;21.25;;;12.85;;
19032;SDS011;9649;51.042;13.804;2022-11-30T11:59:26;24.03;;;14.50;;
19032;SDS011;9649;51.042;13.804;2022-11-30T12:04:41;24.70;;;14.07;;
19032;SDS011;9649;51.042;13.804;2022-11-30T12:09:52;26.27;;;13.87;;
19032;SDS011;9649;51.042;13.804;2022-11-30T12:15:22;24.17;;;13.97;;
19032;SDS011;9649;51.042;13.804;2022-11-30T12:20:34;27.10;;;14.17;;
19032;SDS011;9649;51.042;13.804;2022-11-30T12:25:46;22.87;;;13.13;;
19032;SDS011;9649;51.042;13.804;2022-11-30T12:30:58;20.57;;;12.97;;
19032;SDS011;9649;51.042;13.804;2022-11-30T12:36:13;23.83;;;13.50;;
19032;SDS011;9649;51.042;13.804;2022-11-30T12:41:25;22.37;;;13.53;;
19032;SDS011;9649;51.042;13.804;2022-11-30T12:46:33;24.10;;;13.47;;
19032;SDS011;9649;51.042;13.804;2022-11-30T12:51:42;24.67;;;12.90;;
19032;SDS011;9649;51.042;13.804;2022-11-30T12:56:55;23.07;;;14.27;;
19032;SDS011;9649;51.042;13.804;2022-11-30T13:02:15;22.67;;;13.57;;
19032;SDS011;9649;51.042;13.804;2022-11-30T13:07:36;24.50;;;12.70;;
19032;SDS011;9649;51.042;13.804;2022-11-30T13:12:46;25.37;;;13.70;;
19032;SDS011;9649;51.042;13.804;2022-11-30T13:17:52;22.87;;;13.13;;
19032;SDS011;9649;51.042;13.804;2022-11-30T13:22:57;23.73;;;13.43;;
19032;SDS011;9649;51.042;13.804;2022-11-30T13:28:09;21.57;;;12.73;;
19032;SDS011;9649;51.042;13.804;2022-11-30T13:38:46;24.07;;;13.47;;
19032;SDS011;9649;51.042;13.804;2022-11-30T13:44:20;21.67;;;13.00;;
19032;SDS011;9649;51.042;13.804;2022-11-30T13:49:27;24.93;;;13.47;;
19032;SDS011;9649;51.042;13.804;2022-11-30T13:54:41;23.97;;;13.53;;
19032;SDS011;9649;51.042;13.804;2022-11-30T13:59:48;26.53;;;13.77;;
19032;SDS011;9649;51.042;13.804;2022-11-30T14:04:52;23.70;;;13.17;;
19032;SDS011;9649;51.042;13.804;2022-11-30T14:09:56;25.50;;;13.70;;
19032;SDS011;9649;51.042;13.804;2022-11-30T14:15:01;22.97;;;13.60;;
19032;SDS011;9649;51.042;13.804;2022-11-30T14:20:26;27.07;;;14.63;;
19032;SDS011;9649;51.042;13.804;2022-11-30T14:25:38;25.33;;;14.30;;
19032;SDS011;9649;51.042;13.804;2022-11-30T14:30:48;26.33;;;14.80;;
19032;SDS011;9649;51.042;13.804;2022-11-30T14:35:53;26.53;;;14.47;;
19032;SDS011;9649;51.042;13.804;2022-11-30T14:40:58;25.63;;;15.43;;
19032;SDS011;9649;51.042;13.804;2022-11-30T14:46:03;27.67;;;14.80;;
19032;SDS011;9649;51.042;13.804;2022-11-30T14:51:14;27.60;;;14.73;;
19032;SDS011;9649;51.042;13.804;2022-11-30T14:56:18;25.37;;;14.30;;
19032;SDS011;9649;51.042;13.804;2022-11-30T15:01:29;28.87;;;15.13;;
19032;SDS011;9649;51.042;13.804;2022-11-30T15:06:33;26.83;;;15.30;;
19032;SDS011;9649;51.042;13.804;2022-11-30T15:11:38;25.70;;;14.27;;
19032;SDS011;9649;51.042;13.804;2022-11-30T15:16:46;28.77;;;16.33;;
19032;SDS011;9649;51.042;13.804;2022-11-30T15:21:52;28.00;;;15.83;;
19032;SDS011;9649;51.042;13.804;2022-11-30T15:26:56;26.43;;;14.53;;
19032;SDS011;9649;51.042;13.804;2022-11-30T15:32:15;28.20;;;15.90;;
19032;SDS011;9649;51.042;13.804;2022-11-30T15:37:19;40.03;;;19.97;;
19032;SDS011;9649;51.042;13.804;2022-11-30T15:42:29;29.70;;;17.30;;
19032;SDS011;9649;51.042;13.804;2022-11-30T15:47:41;31.90;;;19.70;;
19032;SDS011;9649;51.042;13.804;2022-11-30T15:52:44;26.43;;;16.53;;
19032;SDS011;9649;51.042;13.804;2022-11-30T15:57:57;28.73;;;15.13;;
19032;SDS011;9649;51.042;13.804;2022-11-30T16:03:12;32.80;;;17.77;;
19032;SDS011;9649;51.042;13.804;2022-11-30T16:08:15;33.60;;;17.57;;
19032;SDS011;9649;51.042;13.804;2022-11-30T16:13:19;30.00;;;16.50;;
19032;SDS011;9649;51.042;13.804;2022-11-30T16:18:25;31.60;;;17.37;;
19032;SDS011;9649;51.042;13.804;2022-11-30T16:23:29;32.23;;;16.80;;
19032;SDS011;9649;51.042;13.804;2022-11-30T16:28:35;31.80;;;16.90;;
19032;SDS011;9649;51.042;13.804;2022-11-30T16:33:40;39.63;;;20.40;;
19032;SDS011;9649;51.042;13.804;2022-11-30T16:38:44;35.77;;;20.00;;
19032;SDS011;9649;51.042;13.804;2022-11-30T16:43:49;32.00;;;18.23;;
19032;SDS011;9649;51.042;13.804;2022-11-30T16:48:54;37.87;;;21.07;;
19032;SDS011;9649;51.042;13.804;2022-11-30T16:53:57;31.53;;;17.40;;
19032;SDS011;9649;51.042;13.804;2022-11-30T16:59:00;26.47;;;15.10;;
19032;SDS011;9649;51.042;13.804;2022-11-30T17:04:05;38.57;;;19.43;;
19032;SDS011;9649;51.042;13.804;2022-11-30T17:09:13;32.87;;;18.40;;
19032;SDS011;9649;51.042;13.804;2022-11-30T17:14:26;25.57;;;15.00;;
19032;SDS011;9649;51.042;13.804;2022-11-30T17:19:30;25.33;;;14.77;;
19032;SDS011;9649;51.042;13.804;2022-11-30T17:24:34;27.87;;;15.43;;
19032;SDS011;9649;51.042;13.804;2022-11-30T17:29:37;30.40;;;16.40;;
19032;SDS011;9649;51.042;13.804;2022-11-30T17:34:41;28.97;;;16.23;;
19032;SDS011;9649;51.042;13.804;2022-11-30T17:39:45;30.50;;;16.60;;
19032;SDS011;9649;51.042;13.804;2022-11-30T17:44:48;28.47;;;16.13;;
19032;SDS011;9649;51.042;13.804;2022-11-30T17:49:52;39.43;;;21.07;;
19032;SDS011;9649;51.042;13.804;2022-11-30T17:54:56;46.13;;;23.53;;
19032;SDS011;9649;51.042;13.804;2022-11-30T17:59:59;55.47;;;26.33;;
19032;SDS011;9649;51.042;13.804;2022-11-30T18:05:03;52.83;;;26.33;;
19032;SDS011;9649;51.042;13.804;2022-11-30T18:10:11;53.20;;;26.73;;
19032;SDS011;9649;51.042;13.804;2022-11-30T18:15:15;58.03;;;27.63;;
19032;SDS011;9649;51.042;13.804;2022-11-30T18:20:19;60.30;;;29.50;;
19032;SDS011;9649;51.042;13.804;2022-11-30T18:25:22;63.33;;;30.93;;
19032;SDS011;9649;51.042;13.804;2022-11-30T18:30:25;69.23;;;31.63;;
19032;SDS011;9649;51.042;13.804;2022-11-30T18:35:30;65.20;;;30.87;;
19032;SDS011;9649;51.042;13.804;2022-11-30T18:40:34;72.27;;;32.10;;
19032;SDS011;9649;51.042;13.804;2022-11-30T18:45:37;71.13;;;32.50;;
19032;SDS011;9649;51.042;13.804;2022-11-30T18:50:41;72.53;;;33.00;;
19032;SDS011;9649;51.042;13.804;2022-11-30T18:55:44;70.23;;;31.53;;
19032;SDS011;9649;51.042;13.804;2022-11-30T19:00:47;73.10;;;31.83;;
19032;SDS011;9649;51.042;13.804;2022-11-30T19:05:51;68.07;;;31.03;;
19032;SDS011;9649;51.042;13.804;2022-11-30T19:10:54;66.30;;;29.83;;
19032;SDS011;9649;51.042;13.804;2022-11-30T19:16:06;69.37;;;31.73;;
19032;SDS011;9649;51.042;13.804;2022-11-30T19:21:12;65.37;;;30.47;;
19032;SDS011;9649;51.042;13.804;2022-11-30T19:26:16;66.30;;;29.47;;
19032;SDS011;9649;51.042;13.804;2022-11-30T19:31:20;65.77;;;29.90;;
19032;SDS011;9649;51.042;13.804;2022-11-30T19:36:26;67.60;;;30.30;;
19032;SDS011;9649;51.042;13.804;2022-11-30T19:41:30;66.47;;;29.90;;
19032;SDS011;9649;51.042;13.804;2022-11-30T19:46:33;65.10;;;29.90;;
19032;SDS011;9649;51.042;13.804;2022-11-30T19:51:40;66.57;;;30.00;;
19032;SDS011;9649;51.042;13.804;2022-11-30T19:56:42;69.90;;;29.60;;
19032;SDS011;9649;51.042;13.804;2022-11-30T20:01:45;73.23;;;31.83;;
19032;SDS011;9649;51.042;13.804;2022-11-30T20:06:49;68.03;;;29.70;;
19032;SDS011;9649;51.042;13.804;2022-11-30T20:11:52;64.80;;;27.47;;
19032;SDS011;9649;51.042;13.804;2022-11-30T20:16:56;64.27;;;29.50;;
19032;SDS011;9649;51.042;13.804;2022-11-30T20:22:00;63.40;;;27.03;;
19032;SDS011;9649;51.042;13.804;2022-11-30T20:27:04;62.83;;;26.73;;
19032;SDS011;9649;51.042;13.804;2022-11-30T20:32:07;63.37;;;28.33;;
19032;SDS011;9649;51.042;13.804;2022-11-30T20:37:11;69.87;;;29.10;;
19032;SDS011;9649;51.042;13.804;2022-11-30T20:42:15;64.73;;;27.70;;
19032;SDS011;9649;51.042;13.804;2022-11-30T20:47:18;68.23;;;29.57;;
19032;SDS011;9649;51.042;13.804;2022-11-30T20:52:22;69.10;;;28.57;;
19032;SDS011;9649;51.042;13.804;2022-11-30T20:57:25;72.20;;;30.33;;
19032;SDS011;9649;51.042;13.804;2022-11-30T21:02:28;68.57;;;28.63;;
19032;SDS011;9649;51.042;13.804;2022-11-30T21:07:32;76.90;;;31.33;;
19032;SDS011;9649;51.042;13.804;2022-11-30T21:12:53;71.10;;;29.33;;
19032;SDS011;9649;51.042;13.804;2022-11-30T21:17:56;67.00;;;28.40;;
19032;SDS011;9649;51.042;13.804;2022-11-30T21:23:04;64.00;;;27.57;;
19032;SDS011;9649;51.042;13.804;2022-11-30T21:28:15;68.87;;;26.90;;
19032;SDS011;9649;51.042;13.804;2022-11-30T21:33:20;66.67;;;26.77;;
19032;SDS011;9649;51.042;13.804;2022-11-30T21:38:24;58.33;;;25.07;;
19032;SDS011;9649;51.042;13.804;2022-11-30T21:43:28;56.20;;;23.67;;
19032;SDS011;9649;51.042;13.804;2022-11-30T21:48:34;61.80;;;25.20;;
19032;SDS011;9649;51.042;13.804;2022-11-30T21:53:41;62.50;;;25.63;;
19032;SDS011;9649;51.042;13.804;2022-11-30T21:58:48;59.83;;;25.33;;
19032;SDS011;9649;51.042;13.804;2022-11-30T22:03:53;57.30;;;23.97;;
19032;SDS011;9649;51.042;13.804;2022-11-30T22:08:58;52.57;;;23.23;;
19032;SDS011;9649;51.042;13.804;2022-11-30T22:14:09;60.33;;;25.90;;
19032;SDS011;9649;51.042;13.804;2022-11-30T22:19:13;59.77;;;24.40;;
19032;SDS011;9649;51.042;13.804;2022-11-30T22:24:18;58.80;;;23.60;;
19032;SDS011;9649;51.042;13.804;2022-11-30T22:29:21;53.47;;;23.40;;
19032;SDS011;9649;51.042;13.804;2022-11-30T22:34:24;59.10;;;23.33;;
19032;SDS011;9649;51.042;13.804;2022-11-30T22:39:29;51.73;;;21.97;;
19032;SDS011;9649;51.042;13.804;2022-11-30T22:44:32;55.67;;;22.70;;
19032;SDS011;9649;51.042;13.804;2022-11-30T22:49:35;56.00;;;23.33;;
19032;SDS011;9649;51.042;13.804;2022-11-30T22:54:39;57.93;;;23.70;;
19032;SDS011;9649;51.042;13.804;2022-11-30T22:59:42;56.37;;;22.33;;
19032;SDS011;9649;51.042;13.804;2022-11-30T23:04:45;54.43;;;22.20;;
19032;SDS011;9649;51.042;13.804;2022-11-30T23:09:49;56.57;;;22.73;;
19032;SDS011;9649;51.042;13.804;2022-11-30T23:14:52;60.97;;;23.03;;
19032;SDS011;9649;51.042;13.804;2022-11-30T23:19:55;57.70;;;23.47;;
19032;SDS011;9649;51.042;13.804;2022-11-30T23:24:59;60.83;;;22.73;;
19032;SDS011;9649;51.042;13.804;2022-11-30T23:30:02;63.43;;;24.30;;
19032;SDS011;9649;51.042;13.804;2022-11-30T23:35:05;59.00;;;22.93;;
19032;SDS011;9649;51.042;13.804;2022-11-30T23:40:10;61.13;;;23.47;;
19032;SDS011;9649;51.042;13.804;2022-11-30T23:45:13;60.80;;;23.23;;
19032;SDS011;9649;51.042;13.804;2022-11-30T23:50:16;58.20;;;23.43;;
19032;SDS011;9649;51.042;13.804;2022-11-30T23:55:20;51.23;;;20.83;;
